createdAt,value
2018-04-06T00:00:52.609Z,4.55
2018-04-06T00:03:21.495Z,3.90
2018-04-06T00:05:50.379Z,4.22
2018-04-06T00:08:19.268Z,3.75
2018-04-06T00:10:48.139Z,4.35
2018-04-06T00:13:16.257Z,4.03
2018-04-06T00:15:44.386Z,4.03
2018-04-06T00:18:12.521Z,4.18
2018-04-06T00:20:41.543Z,4.40
2018-04-06T00:23:09.673Z,3.97
2018-04-06T00:25:37.815Z,4.00
2018-04-06T00:28:06.688Z,4.00
2018-04-06T00:30:34.821Z,3.83
2018-04-06T00:33:02.937Z,4.25
2018-04-06T00:35:31.046Z,3.95
2018-04-06T00:37:59.204Z,4.05
2018-04-06T00:40:27.311Z,4.40
2018-04-06T00:42:55.433Z,4.12
2018-04-06T00:45:24.546Z,3.70
2018-04-06T00:47:53.532Z,3.95
2018-04-06T00:50:22.398Z,4.10
2018-04-06T00:52:50.502Z,4.07
2018-04-06T00:55:18.620Z,3.92
2018-04-06T00:57:47.550Z,3.97
2018-04-06T01:00:16.454Z,4.47
2018-04-06T01:02:45.321Z,4.50
2018-04-06T01:05:14.212Z,4.20
2018-04-06T01:07:42.324Z,4.37
2018-04-06T01:10:10.442Z,4.68
2018-04-06T01:12:38.546Z,4.35
2018-04-06T01:15:06.683Z,4.85
2018-04-06T01:17:34.796Z,4.47
2018-04-06T01:20:03.659Z,4.15
2018-04-06T01:22:32.534Z,5.30
2018-04-06T01:25:00.690Z,4.20
2018-04-06T01:27:28.794Z,4.50
2018-04-06T01:29:57.671Z,4.30
2018-04-06T01:32:25.874Z,4.20
2018-04-06T01:34:54.747Z,4.50
2018-04-06T01:37:22.872Z,4.10
2018-04-06T01:39:50.980Z,4.55
2018-04-06T01:42:19.186Z,4.93
2018-04-06T01:44:47.306Z,5.12
2018-04-06T01:47:15.530Z,5.37
2018-04-06T01:49:44.401Z,5.62
2018-04-06T01:52:12.596Z,4.65
2018-04-06T01:54:41.480Z,5.37
2018-04-06T01:57:10.361Z,5.90
2018-04-06T01:59:39.262Z,5.35
2018-04-06T02:02:08.139Z,5.30
2018-04-06T02:04:36.244Z,5.55
2018-04-06T02:07:04.356Z,5.87
2018-04-06T02:09:32.459Z,5.55
2018-04-06T02:12:01.375Z,5.75
2018-04-06T02:14:29.503Z,5.28
2018-04-06T02:16:57.650Z,5.95
2018-04-06T02:19:25.776Z,6.15
2018-04-06T02:21:54.642Z,6.03
2018-04-06T02:24:22.775Z,6.22
2018-04-06T02:26:50.880Z,6.03
2018-04-06T02:29:19.114Z,6.43
2018-04-06T02:31:47.244Z,6.62
2018-04-06T02:34:16.122Z,6.60
2018-04-06T02:36:44.327Z,6.35
2018-04-06T02:39:13.185Z,7.12
2018-04-06T02:41:41.295Z,7.12
2018-04-06T02:44:09.451Z,6.50
2018-04-06T02:46:37.568Z,7.30
2018-04-06T02:49:05.676Z,7.07
2018-04-06T02:51:33.791Z,7.18
2018-04-06T02:54:01.914Z,7.50
2018-04-06T02:56:30.008Z,7.55
2018-04-06T02:58:58.908Z,7.30
2018-04-06T03:01:27.807Z,7.12
2018-04-06T03:03:55.917Z,8.30
2018-04-06T03:06:24.059Z,7.70
2018-04-06T03:08:52.931Z,8.45
2018-04-06T03:11:21.832Z,7.32
2018-04-06T03:13:50.699Z,8.18
2018-04-06T03:16:19.639Z,8.10
2018-04-06T03:18:47.757Z,8.02
2018-04-06T03:21:15.947Z,8.13
2018-04-06T03:23:44.817Z,7.97
2018-04-06T03:26:13.022Z,8.57
2018-04-06T03:28:41.139Z,9.18
2018-04-06T03:31:09.247Z,9.15
2018-04-06T03:33:38.135Z,8.40
2018-04-06T03:36:07.023Z,8.85
2018-04-06T03:38:35.122Z,8.93
2018-04-06T03:41:03.250Z,8.45
2018-04-06T03:43:31.382Z,8.23
2018-04-06T03:45:59.495Z,8.40
2018-04-06T03:48:27.667Z,8.95
2018-04-06T03:50:55.765Z,8.48
2018-04-06T03:53:24.639Z,8.93
2018-04-06T03:55:52.769Z,8.80
2018-04-06T03:58:20.869Z,8.68
2018-04-06T04:00:48.979Z,8.98
2018-04-06T04:03:17.109Z,8.85
2018-04-06T04:05:45.211Z,9.25
2018-04-06T04:08:14.115Z,8.98
2018-04-06T04:10:42.231Z,9.52
2018-04-06T04:13:10.339Z,8.50
2018-04-06T04:15:39.239Z,9.30
2018-04-06T04:18:08.131Z,9.02
2018-04-06T04:20:36.315Z,10.00
2018-04-06T04:23:04.417Z,9.10
2018-04-06T04:25:32.550Z,9.43
2018-04-06T04:28:01.523Z,9.05
2018-04-06T04:30:29.592Z,9.63
2018-04-06T04:32:57.788Z,9.63
2018-04-06T04:35:26.676Z,9.52
2018-04-06T04:37:55.580Z,10.02
2018-04-06T04:40:24.444Z,9.30
2018-04-06T04:42:53.319Z,9.15
2018-04-06T04:45:21.446Z,9.45
2018-04-06T04:47:49.558Z,9.23
2018-04-06T04:50:17.699Z,9.27
2018-04-06T04:52:45.800Z,8.73
2018-04-06T04:55:13.928Z,8.13
2018-04-06T04:57:42.056Z,9.15
2018-04-06T05:00:10.184Z,8.48
2018-04-06T05:02:38.300Z,9.10
2018-04-06T05:05:06.398Z,8.57
2018-04-06T05:07:35.396Z,8.57
2018-04-06T05:10:03.509Z,8.27
2018-04-06T05:12:31.626Z,8.07
2018-04-06T05:15:00.511Z,7.95
2018-04-06T05:17:29.617Z,8.52
2018-04-06T05:19:58.506Z,8.73
2018-04-06T05:22:26.652Z,8.02
2018-04-06T05:24:54.856Z,7.82
2018-04-06T05:27:23.740Z,8.82
2018-04-06T05:29:53.608Z,7.97
2018-04-06T05:35:02.755Z,8.77
2018-04-06T05:42:06.059Z,8.68
2018-04-06T05:47:17.548Z,7.95
2018-04-06T05:49:45.686Z,8.98
2018-04-06T05:52:13.889Z,8.85
2018-04-06T05:54:42.053Z,7.62
2018-04-06T05:57:10.957Z,7.37
2018-04-06T05:59:39.137Z,7.87
2018-04-06T06:02:07.251Z,8.30
2018-04-06T06:04:35.983Z,8.27
2018-04-06T06:07:04.113Z,8.10
2018-04-06T06:09:32.351Z,8.10
2018-04-06T06:12:00.453Z,7.85
2018-04-06T06:14:28.584Z,8.15
2018-04-06T06:16:56.735Z,8.20
2018-04-06T06:19:25.728Z,8.20
2018-04-06T06:21:54.619Z,8.50
2018-04-06T06:24:23.487Z,8.38
2018-04-06T06:26:51.599Z,7.75
2018-04-06T06:29:19.717Z,8.02
2018-04-06T06:31:47.867Z,8.00
2018-04-06T06:34:15.991Z,8.15
2018-04-06T06:36:44.092Z,8.60
2018-04-06T06:39:12.261Z,8.30
2018-04-06T06:41:40.381Z,8.48
2018-04-06T06:44:08.479Z,8.27
2018-04-06T06:46:37.373Z,8.55
2018-04-06T06:49:06.242Z,8.75
2018-04-06T06:51:34.375Z,8.13
2018-04-06T06:54:02.643Z,8.68
2018-04-06T06:56:30.742Z,8.32
2018-04-06T06:58:58.849Z,8.35
2018-04-06T07:01:27.768Z,8.15
2018-04-06T07:03:56.058Z,8.20
2018-04-06T07:06:24.142Z,8.27
2018-04-06T07:08:52.355Z,8.55
2018-04-06T07:11:21.239Z,8.07
2018-04-06T07:13:49.340Z,8.07
2018-04-06T07:16:17.449Z,7.82
2018-04-06T07:18:45.562Z,8.10
2018-04-06T07:21:14.484Z,7.95
2018-04-06T07:23:42.613Z,8.30
2018-04-06T07:26:10.769Z,8.88
2018-04-06T07:28:38.883Z,7.75
2018-04-06T07:31:07.768Z,7.87
2018-04-06T07:33:36.659Z,8.60
2018-04-06T07:36:05.566Z,7.97
2018-04-06T07:38:34.462Z,7.78
2018-04-06T07:41:02.620Z,7.40
2018-04-06T07:43:31.498Z,8.20
2018-04-06T07:46:00.374Z,7.70
2018-04-06T07:48:29.270Z,7.47
2018-04-06T07:50:58.182Z,7.60
2018-04-06T07:53:26.298Z,7.47
2018-04-06T07:55:54.441Z,7.50
2018-04-06T07:58:22.546Z,6.78
2018-04-06T08:00:50.656Z,7.20
2018-04-06T08:03:19.588Z,7.20
2018-04-06T08:05:47.656Z,7.00
2018-04-06T08:08:15.764Z,6.60
2018-04-06T08:10:43.908Z,6.62
2018-04-06T08:13:12.023Z,6.62
2018-04-06T08:15:41.625Z,5.90
2018-04-06T08:18:10.514Z,5.82
2018-04-06T08:20:38.656Z,6.10
2018-04-06T08:23:06.760Z,5.53
2018-04-06T08:25:35.710Z,5.68
2018-04-06T08:28:03.804Z,6.03
2018-04-06T08:30:31.914Z,6.40
2018-04-06T08:33:00.844Z,6.40
2018-04-06T08:35:28.946Z,6.57
2018-04-06T08:37:57.055Z,7.03
2018-04-06T08:40:25.950Z,6.60
2018-04-06T08:42:54.848Z,6.47
2018-04-06T08:45:23.044Z,6.70
2018-04-06T08:47:51.203Z,7.30
2018-04-06T08:50:19.319Z,6.82
2018-04-06T08:52:47.451Z,6.82
2018-04-06T08:55:15.563Z,7.40
2018-04-06T08:57:43.679Z,7.40
2018-04-06T09:00:11.831Z,7.03
2018-04-06T09:02:40.715Z,6.62
2018-04-06T09:05:09.583Z,7.18
2018-04-06T09:07:37.704Z,6.70
2018-04-06T09:10:05.859Z,6.90
2018-04-06T09:12:34.844Z,7.30
2018-04-06T09:15:03.628Z,7.62
2018-04-06T09:17:32.503Z,6.93
2018-04-06T09:20:00.679Z,6.80
2018-04-06T09:22:28.819Z,6.75
2018-04-06T09:24:56.923Z,6.87
2018-04-06T09:27:25.055Z,7.00
2018-04-06T09:29:53.192Z,6.87
2018-04-06T09:32:22.212Z,6.90
2018-04-06T09:34:50.399Z,7.20
2018-04-06T09:37:18.573Z,7.18
2018-04-06T09:39:46.711Z,7.72
2018-04-06T09:42:15.595Z,6.60
2018-04-06T09:44:45.129Z,6.72
2018-04-06T09:47:13.387Z,6.93
2018-04-06T09:49:42.269Z,6.80
2018-04-06T09:52:11.163Z,6.45
2018-04-06T09:54:40.065Z,6.78
2018-04-06T09:57:08.183Z,6.37
2018-04-06T09:59:36.437Z,6.20
2018-04-06T10:02:10.219Z,5.97
2018-04-06T10:04:38.452Z,6.03
2018-04-06T10:07:07.351Z,5.97
2018-04-06T10:09:35.492Z,6.10
2018-04-06T10:12:03.635Z,6.70
2018-04-06T10:14:31.799Z,6.60
2018-04-06T10:16:59.919Z,6.10
2018-04-06T10:19:28.062Z,5.78
2018-04-06T10:21:56.201Z,6.43
2018-04-06T10:24:25.090Z,5.87
2018-04-06T10:26:53.966Z,5.50
2018-04-06T10:29:22.909Z,5.70
2018-04-06T10:31:51.049Z,6.20
2018-04-06T10:34:19.936Z,6.07
2018-04-06T10:36:48.809Z,5.97
2018-04-06T10:39:18.441Z,6.10
2018-04-06T10:41:47.515Z,5.97
2018-04-06T10:44:15.643Z,5.95
2018-04-06T10:46:43.774Z,6.28
2018-04-06T10:49:12.721Z,6.70
2018-04-06T10:51:40.842Z,6.22
2018-04-06T10:54:09.849Z,6.03
2018-04-06T10:56:37.975Z,6.45
2018-04-06T10:59:06.127Z,6.00
2018-04-06T11:01:34.280Z,6.15
2018-04-06T11:04:02.437Z,5.72
2018-04-06T11:06:30.551Z,6.10
2018-04-06T11:08:58.675Z,5.90
2018-04-06T11:11:27.142Z,5.60
2018-04-06T11:13:55.280Z,5.73
2018-04-06T11:16:23.484Z,6.13
2018-04-06T11:21:25.956Z,5.57
2018-04-06T11:23:54.098Z,5.73
2018-04-06T11:26:22.253Z,5.60
2018-04-06T11:28:50.543Z,5.17
2018-04-06T11:31:18.673Z,5.30
2018-04-06T11:33:46.784Z,5.80
2018-04-06T11:36:14.940Z,5.33
2018-04-06T11:38:43.816Z,5.60
2018-04-06T11:41:12.707Z,5.40
2018-04-06T11:43:41.606Z,5.20
2018-04-06T11:46:10.496Z,5.60
2018-04-06T11:48:39.392Z,5.60
2018-04-06T11:51:08.284Z,5.60
2018-04-06T11:53:37.272Z,5.10
2018-04-06T11:56:06.175Z,5.00
2018-04-06T11:58:34.293Z,5.07
2018-04-06T12:01:02.440Z,5.00
2018-04-06T12:03:30.574Z,4.43
2018-04-06T12:05:59.443Z,4.73
2018-04-06T12:08:27.651Z,5.20
2018-04-06T12:10:56.561Z,4.43
2018-04-06T12:13:24.700Z,4.93
2018-04-06T12:15:53.636Z,4.90
2018-04-06T12:18:21.755Z,4.87
2018-04-06T12:20:49.879Z,4.63
2018-04-06T12:23:18.183Z,4.37
2018-04-06T12:25:46.295Z,4.00
2018-04-06T12:28:15.179Z,3.90
2018-04-06T12:30:44.091Z,4.13
2018-04-06T12:33:12.207Z,4.57
2018-04-06T12:35:40.359Z,4.67
2018-04-06T12:38:08.463Z,4.97
2018-04-06T12:40:36.691Z,4.47
2018-04-06T12:43:04.834Z,4.47
2018-04-06T12:45:32.941Z,4.80
2018-04-06T12:48:01.091Z,4.70
2018-04-06T12:50:29.228Z,4.70
2018-04-06T12:52:57.365Z,4.90
2018-04-06T12:55:25.468Z,5.07
2018-04-06T12:57:55.087Z,5.40
2018-04-06T13:00:23.231Z,4.60
2018-04-06T13:02:51.368Z,4.80
2018-04-06T13:05:19.649Z,4.77
2018-04-06T13:07:48.535Z,4.43
2018-04-06T13:10:17.493Z,4.00
2018-04-06T13:12:45.610Z,4.47
2018-04-06T13:15:13.725Z,4.00
2018-04-06T13:17:43.342Z,4.23
2018-04-06T13:20:11.681Z,3.87
2018-04-06T13:22:39.779Z,4.00
2018-04-06T13:25:07.999Z,4.40
2018-04-06T13:27:36.887Z,4.30
2018-04-06T13:30:05.762Z,4.47
2018-04-06T13:32:34.653Z,4.40
2018-04-06T13:35:03.550Z,4.70
2018-04-06T13:37:32.439Z,4.40
2018-04-06T13:40:00.546Z,4.00
2018-04-06T13:42:28.694Z,3.50
2018-04-06T13:44:57.569Z,3.60
2018-04-06T13:47:26.508Z,3.97
2018-04-06T13:49:55.706Z,4.00
2018-04-06T13:52:23.825Z,3.67
2018-04-06T13:54:52.054Z,3.47
2018-04-06T13:57:20.201Z,3.70
2018-04-06T13:59:48.319Z,3.93
2018-04-06T14:02:16.467Z,3.70
2018-04-06T14:04:44.598Z,3.43
2018-04-06T14:07:13.489Z,3.57
2018-04-06T14:09:42.372Z,3.77
2018-04-06T14:12:10.488Z,3.40
2018-04-06T14:14:38.618Z,3.67
2018-04-06T14:17:06.734Z,3.90
2018-04-06T14:19:34.836Z,3.73
2018-04-06T14:22:02.980Z,3.37
2018-04-06T14:24:31.121Z,3.47
2018-04-06T14:27:00.002Z,3.47
2018-04-06T14:29:28.912Z,3.47
2018-04-06T14:31:57.792Z,3.37
2018-04-06T14:34:26.682Z,3.40
2018-04-06T14:36:55.552Z,3.30
2018-04-06T14:39:23.710Z,3.37
2018-04-06T14:41:51.816Z,3.20
2018-04-06T14:44:20.717Z,3.23
2018-04-06T14:46:48.881Z,3.40
2018-04-06T14:49:17.760Z,3.30
2018-04-06T14:51:46.644Z,3.60
2018-04-06T14:54:14.824Z,3.37
2018-04-06T14:56:43.702Z,3.50
2018-04-06T14:59:11.814Z,3.67
2018-04-06T15:01:39.984Z,3.17
2018-04-06T15:04:08.875Z,3.50
2018-04-06T15:06:37.762Z,3.20
2018-04-06T15:09:06.644Z,2.90
2018-04-06T15:11:35.554Z,3.33
2018-04-06T15:14:03.710Z,3.20
2018-04-06T15:16:32.584Z,3.33
2018-04-06T15:19:00.696Z,3.57
2018-04-06T15:21:28.832Z,3.20
2018-04-06T15:23:57.788Z,3.03
2018-04-06T15:26:25.912Z,3.20
2018-04-06T15:28:54.784Z,3.20
2018-04-06T15:31:22.900Z,3.00
2018-04-06T15:33:51.023Z,3.10
2018-04-06T15:36:19.180Z,2.80
2018-04-06T15:38:47.276Z,3.00
2018-04-06T15:41:15.405Z,2.97
2018-04-06T15:43:43.579Z,3.10
2018-04-06T15:46:11.715Z,2.90
2018-04-06T15:48:39.808Z,2.90
2018-04-06T15:51:07.925Z,2.90
2018-04-06T15:53:36.144Z,2.63
2018-04-06T15:56:05.031Z,2.63
2018-04-06T15:58:33.900Z,2.70
2018-04-06T16:01:02.921Z,2.77
2018-04-06T16:03:31.051Z,2.60
2018-04-06T16:05:59.200Z,2.70
2018-04-06T16:08:27.312Z,2.67
2018-04-06T16:10:55.465Z,2.60
2018-04-06T16:13:23.564Z,2.60
2018-04-06T16:15:52.631Z,2.40
2018-04-06T16:18:20.854Z,2.60
2018-04-06T16:20:49.760Z,2.10
2018-04-06T16:23:17.922Z,2.33
2018-04-06T16:25:46.815Z,2.10
2018-04-06T16:28:14.938Z,2.30
2018-04-06T16:30:43.043Z,2.43
2018-04-06T16:33:11.932Z,2.60
2018-04-06T16:35:40.931Z,2.30
2018-04-06T16:38:09.855Z,2.67
2018-04-06T16:40:37.965Z,2.57
2018-04-06T16:43:06.175Z,2.50
2018-04-06T16:45:35.065Z,2.20
2018-04-06T16:48:03.956Z,2.50
2018-04-06T16:50:32.831Z,2.60
2018-04-06T16:53:01.738Z,2.37
2018-04-06T16:55:29.899Z,2.70
2018-04-06T16:57:58.786Z,2.43
2018-04-06T17:00:27.718Z,2.50
2018-04-06T17:02:55.830Z,2.80
2018-04-06T17:05:23.983Z,2.57
2018-04-06T17:07:52.118Z,2.30
2018-04-06T17:10:20.241Z,2.80
2018-04-06T17:12:48.386Z,2.50
2018-04-06T17:15:16.561Z,2.50
2018-04-06T17:17:44.667Z,2.70
2018-04-06T17:20:14.286Z,2.53
2018-04-06T17:22:42.410Z,2.80
2018-04-06T17:25:10.584Z,2.63
2018-04-06T17:27:38.682Z,2.77
2018-04-06T17:30:06.827Z,2.73
2018-04-06T17:32:35.006Z,3.10
2018-04-06T17:35:03.094Z,2.93
2018-04-06T17:37:31.218Z,2.73
2018-04-06T17:40:00.113Z,2.80
2018-04-06T17:42:28.998Z,2.93
2018-04-06T17:44:57.884Z,2.73
2018-04-06T17:47:26.796Z,2.97
2018-04-06T17:49:54.951Z,3.20
2018-04-06T17:52:23.818Z,3.10
2018-04-06T17:54:52.023Z,2.73
2018-04-06T17:57:20.224Z,2.90
2018-04-06T17:59:48.322Z,3.00
2018-04-06T18:02:16.482Z,2.70
2018-04-06T18:04:45.359Z,3.00
2018-04-06T18:07:13.475Z,3.40
2018-04-06T18:09:41.582Z,3.43
2018-04-06T18:12:09.779Z,3.27
2018-04-06T18:14:37.906Z,3.20
2018-04-06T18:17:06.817Z,3.33
2018-04-06T18:19:35.704Z,3.50
2018-04-06T18:22:04.618Z,3.57
2018-04-06T18:24:32.727Z,3.50
2018-04-06T18:27:00.949Z,3.33
2018-04-06T18:29:29.826Z,3.20
2018-04-06T18:31:58.708Z,3.90
2018-04-06T18:34:27.599Z,5.27
2018-04-06T18:36:56.616Z,5.10
2018-04-06T18:39:24.724Z,4.33
2018-04-06T18:41:52.884Z,5.47
2018-04-06T18:44:20.991Z,4.20
2018-04-06T18:46:49.122Z,3.63
2018-04-06T18:49:17.231Z,4.10
2018-04-06T18:51:45.478Z,3.97
2018-04-06T18:54:13.591Z,3.43
2018-04-06T18:56:41.712Z,3.93
2018-04-06T18:59:09.842Z,4.40
2018-04-06T19:01:38.010Z,3.67
2018-04-06T19:04:07.647Z,3.97
2018-04-06T19:06:36.564Z,4.20
2018-04-06T19:09:05.574Z,4.10
2018-04-06T19:11:33.708Z,4.23
2018-04-06T19:14:01.838Z,4.20
2018-04-06T19:16:29.978Z,4.57
2018-04-06T19:18:58.197Z,4.10
2018-04-06T19:21:26.301Z,4.37
2018-04-06T19:23:55.163Z,4.20
2018-04-06T19:26:23.395Z,5.03
2018-04-06T19:28:51.527Z,4.50
2018-04-06T19:31:20.428Z,4.93
2018-04-06T19:33:49.353Z,5.00
2018-04-06T19:36:17.455Z,4.90
2018-04-06T19:38:45.571Z,6.30
2018-04-06T19:41:13.699Z,4.97
2018-04-06T19:43:41.803Z,4.73
2018-04-06T19:46:10.672Z,4.90
2018-04-06T19:48:38.900Z,4.97
2018-04-06T19:51:06.987Z,4.67
2018-04-06T19:53:35.104Z,4.87
2018-04-06T19:56:04.028Z,5.00
2018-04-06T19:58:32.159Z,5.60
2018-04-06T20:01:00.275Z,5.37
2018-04-06T20:03:28.379Z,5.27
2018-04-06T20:05:56.549Z,5.70
2018-04-06T20:08:24.680Z,5.77
2018-04-06T20:10:52.855Z,5.20
2018-04-06T20:13:20.967Z,5.63
2018-04-06T20:15:49.187Z,5.50
2018-04-06T20:18:18.161Z,5.33
2018-04-06T20:20:46.267Z,5.10
2018-04-06T20:23:14.383Z,5.50
2018-04-06T20:25:42.635Z,4.97
2018-04-06T20:28:10.806Z,4.70
2018-04-06T20:30:38.909Z,5.03
2018-04-06T20:33:07.039Z,4.90
2018-04-06T20:35:35.152Z,4.80
2018-04-06T20:38:03.273Z,4.83
2018-04-06T20:40:31.404Z,4.70
2018-04-06T20:42:59.505Z,4.97
2018-04-06T20:45:28.399Z,5.00
2018-04-06T20:47:57.311Z,5.20
2018-04-06T20:50:25.454Z,5.03
2018-04-06T20:52:53.574Z,4.83
2018-04-06T20:55:21.697Z,5.00
2018-04-06T20:57:50.620Z,4.53
2018-04-06T21:00:18.729Z,4.80
2018-04-06T21:02:46.861Z,4.70
2018-04-06T21:05:14.997Z,5.33
2018-04-06T21:07:43.124Z,4.97
2018-04-06T21:10:11.229Z,5.07
2018-04-06T21:12:40.859Z,5.20
2018-04-06T21:15:09.966Z,5.23
2018-04-06T21:17:38.990Z,5.20
2018-04-06T21:20:07.077Z,4.90
2018-04-06T21:22:35.206Z,5.30
2018-04-06T21:25:04.202Z,4.90
2018-04-06T21:27:33.189Z,5.20
2018-04-06T21:30:02.069Z,4.83
2018-04-06T21:32:30.988Z,5.00
2018-04-06T21:34:59.112Z,4.60
2018-04-06T21:37:27.866Z,4.90
2018-04-06T21:39:55.961Z,4.90
2018-04-06T21:42:24.063Z,5.30
2018-04-06T21:44:52.957Z,5.10
2018-04-06T21:47:21.834Z,4.87
2018-04-06T21:49:50.755Z,5.15
2018-04-06T21:52:19.128Z,5.25
2018-04-06T21:54:47.242Z,4.85
2018-04-06T21:57:15.346Z,5.70
2018-04-06T21:59:43.493Z,4.83
2018-04-06T22:02:11.608Z,4.97
2018-04-06T22:04:40.506Z,4.87
2018-04-06T22:07:09.428Z,4.73
2018-04-06T22:09:37.549Z,5.68
2018-04-06T22:12:05.663Z,5.60
2018-04-06T22:14:33.816Z,5.18
2018-04-06T22:17:01.940Z,5.68
2018-04-06T22:19:30.075Z,6.03
2018-04-06T22:21:58.192Z,5.87
2018-04-06T22:24:26.304Z,6.03
2018-04-06T22:26:55.216Z,5.82
2018-04-06T22:29:23.360Z,5.60
2018-04-06T22:31:52.240Z,5.95
2018-04-06T22:34:21.142Z,6.25
2018-04-06T22:36:50.032Z,6.10
2018-04-06T22:39:18.939Z,5.78
2018-04-06T22:41:47.115Z,5.62
2018-04-06T22:44:15.223Z,5.78
2018-04-06T22:46:43.463Z,5.53
2018-04-06T22:49:11.595Z,5.78
2018-04-06T22:51:39.734Z,5.55
2018-04-06T22:54:07.848Z,5.72
2018-04-06T22:56:36.763Z,5.65
2018-04-06T22:59:04.951Z,5.47
2018-04-06T23:01:33.061Z,5.40
2018-04-06T23:04:01.177Z,5.75
2018-04-06T23:06:30.105Z,5.97
2018-04-06T23:08:58.264Z,6.00
2018-04-06T23:11:26.388Z,5.60
2018-04-06T23:13:55.315Z,5.40
2018-04-06T23:16:23.447Z,5.80
2018-04-06T23:18:51.587Z,5.07
2018-04-06T23:21:19.698Z,5.25
2018-04-06T23:23:47.868Z,5.47
2018-04-06T23:26:15.961Z,5.22
2018-04-06T23:28:44.975Z,5.62
2018-04-06T23:31:13.123Z,5.70
2018-04-06T23:33:42.015Z,5.40
2018-04-06T23:36:10.892Z,5.68
2018-04-06T23:38:39.021Z,5.60
2018-04-06T23:41:07.371Z,5.57
2018-04-06T23:43:35.488Z,5.57
2018-04-06T23:46:03.607Z,5.40
2018-04-06T23:48:32.535Z,5.80
2018-04-06T23:51:00.643Z,5.53
2018-04-06T23:53:28.751Z,5.72
2018-04-06T23:55:57.673Z,5.45
2018-04-06T23:58:25.787Z,6.30
